sensor_id;sensor_type;location;lat;lon;timestamp;P1;durP1;ratioP1;P2;durP2;ratioP2
1220;SDS011;600;48.044;7.878;2022-11-02T00:00:10;6.07;;;1.93;;
1220;SDS011;600;48.044;7.878;2022-11-02T00:02:39;4.60;;;2.37;;
1220;SDS011;600;48.044;7.878;2022-11-02T00:05:07;4.33;;;2.00;;
1220;SDS011;600;48.044;7.878;2022-11-02T00:07:37;2.73;;;1.63;;
1220;SDS011;600;48.044;7.878;2022-11-02T00:10:06;4.63;;;2.50;;
1220;SDS011;600;48.044;7.878;2022-11-02T00:12:34;4.40;;;1.80;;
1220;SDS011;600;48.044;7.878;2022-11-02T00:15:01;4.07;;;1.70;;
1220;SDS011;600;48.044;7.878;2022-11-02T00:17:28;3.40;;;2.30;;
1220;SDS011;600;48.044;7.878;2022-11-02T00:19:55;5.00;;;2.10;;
1220;SDS011;600;48.044;7.878;2022-11-02T00:22:22;4.53;;;2.47;;
1220;SDS011;600;48.044;7.878;2022-11-02T00:24:49;4.93;;;1.87;;
1220;SDS011;600;48.044;7.878;2022-11-02T00:27:17;6.00;;;2.00;;
1220;SDS011;600;48.044;7.878;2022-11-02T00:29:43;3.33;;;1.67;;
1220;SDS011;600;48.044;7.878;2022-11-02T00:32:10;2.10;;;1.87;;
1220;SDS011;600;48.044;7.878;2022-11-02T00:34:37;3.93;;;1.90;;
1220;SDS011;600;48.044;7.878;2022-11-02T00:37:04;3.23;;;1.80;;
1220;SDS011;600;48.044;7.878;2022-11-02T00:39:30;2.17;;;1.73;;
1220;SDS011;600;48.044;7.878;2022-11-02T00:41:57;4.10;;;2.17;;
1220;SDS011;600;48.044;7.878;2022-11-02T00:44:25;4.90;;;2.23;;
1220;SDS011;600;48.044;7.878;2022-11-02T00:46:52;2.53;;;2.07;;
1220;SDS011;600;48.044;7.878;2022-11-02T00:49:19;7.30;;;2.43;;
1220;SDS011;600;48.044;7.878;2022-11-02T00:51:46;3.87;;;2.57;;
1220;SDS011;600;48.044;7.878;2022-11-02T00:54:13;5.17;;;2.20;;
1220;SDS011;600;48.044;7.878;2022-11-02T00:56:39;2.07;;;1.63;;
1220;SDS011;600;48.044;7.878;2022-11-02T00:59:06;4.37;;;1.80;;
1220;SDS011;600;48.044;7.878;2022-11-02T01:01:34;4.50;;;1.50;;
1220;SDS011;600;48.044;7.878;2022-11-02T01:04:01;5.20;;;2.00;;
1220;SDS011;600;48.044;7.878;2022-11-02T01:06:28;2.73;;;1.67;;
1220;SDS011;600;48.044;7.878;2022-11-02T01:08:55;4.60;;;2.10;;
1220;SDS011;600;48.044;7.878;2022-11-02T01:11:22;2.97;;;1.60;;
1220;SDS011;600;48.044;7.878;2022-11-02T01:13:49;5.20;;;1.90;;
1220;SDS011;600;48.044;7.878;2022-11-02T01:16:18;4.50;;;1.67;;
1220;SDS011;600;48.044;7.878;2022-11-02T01:18:46;2.07;;;1.60;;
1220;SDS011;600;48.044;7.878;2022-11-02T01:21:16;4.07;;;1.87;;
1220;SDS011;600;48.044;7.878;2022-11-02T01:23:43;2.93;;;1.60;;
1220;SDS011;600;48.044;7.878;2022-11-02T01:26:10;3.63;;;2.20;;
1220;SDS011;600;48.044;7.878;2022-11-02T01:28:38;3.43;;;1.87;;
1220;SDS011;600;48.044;7.878;2022-11-02T01:31:05;3.70;;;1.80;;
1220;SDS011;600;48.044;7.878;2022-11-02T01:33:32;4.10;;;1.70;;
1220;SDS011;600;48.044;7.878;2022-11-02T01:36:02;4.53;;;1.80;;
1220;SDS011;600;48.044;7.878;2022-11-02T01:38:30;2.70;;;1.73;;
1220;SDS011;600;48.044;7.878;2022-11-02T01:40:58;2.90;;;1.73;;
1220;SDS011;600;48.044;7.878;2022-11-02T01:43:25;4.50;;;1.90;;
1220;SDS011;600;48.044;7.878;2022-11-02T01:45:54;2.97;;;1.57;;
1220;SDS011;600;48.044;7.878;2022-11-02T01:48:26;2.20;;;1.53;;
1220;SDS011;600;48.044;7.878;2022-11-02T01:50:57;2.20;;;1.50;;
1220;SDS011;600;48.044;7.878;2022-11-02T01:53:28;1.73;;;1.40;;
1220;SDS011;600;48.044;7.878;2022-11-02T01:55:56;2.73;;;1.70;;
1220;SDS011;600;48.044;7.878;2022-11-02T01:58:24;4.60;;;2.10;;
1220;SDS011;600;48.044;7.878;2022-11-02T02:00:52;6.43;;;2.00;;
1220;SDS011;600;48.044;7.878;2022-11-02T02:03:20;2.30;;;1.97;;
1220;SDS011;600;48.044;7.878;2022-11-02T02:05:49;4.97;;;1.60;;
1220;SDS011;600;48.044;7.878;2022-11-02T02:08:22;3.37;;;1.50;;
1220;SDS011;600;48.044;7.878;2022-11-02T02:10:53;3.83;;;1.87;;
1220;SDS011;600;48.044;7.878;2022-11-02T02:13:21;3.57;;;2.17;;
1220;SDS011;600;48.044;7.878;2022-11-02T02:15:49;6.00;;;2.00;;
1220;SDS011;600;48.044;7.878;2022-11-02T02:18:27;2.83;;;1.40;;
1220;SDS011;600;48.044;7.878;2022-11-02T02:21:03;9.73;;;1.70;;
1220;SDS011;600;48.044;7.878;2022-11-02T02:23:54;6.13;;;1.90;;
1220;SDS011;600;48.044;7.878;2022-11-02T02:29:36;5.33;;;1.90;;
1220;SDS011;600;48.044;7.878;2022-11-02T02:32:14;2.63;;;1.47;;
1220;SDS011;600;48.044;7.878;2022-11-02T02:34:46;4.73;;;1.83;;
1220;SDS011;600;48.044;7.878;2022-11-02T02:37:17;2.60;;;1.50;;
1220;SDS011;600;48.044;7.878;2022-11-02T02:39:51;3.13;;;1.60;;
1220;SDS011;600;48.044;7.878;2022-11-02T02:42:27;2.70;;;1.60;;
1220;SDS011;600;48.044;7.878;2022-11-02T02:45:01;3.83;;;1.63;;
1220;SDS011;600;48.044;7.878;2022-11-02T02:47:35;3.47;;;2.00;;
1220;SDS011;600;48.044;7.878;2022-11-02T02:50:10;2.83;;;1.37;;
1220;SDS011;600;48.044;7.878;2022-11-02T02:52:41;4.20;;;1.77;;
1220;SDS011;600;48.044;7.878;2022-11-02T02:55:12;5.93;;;1.83;;
1220;SDS011;600;48.044;7.878;2022-11-02T02:57:43;3.13;;;1.60;;
1220;SDS011;600;48.044;7.878;2022-11-02T03:00:13;3.83;;;1.90;;
1220;SDS011;600;48.044;7.878;2022-11-02T03:02:42;5.60;;;2.07;;
1220;SDS011;600;48.044;7.878;2022-11-02T03:05:25;2.93;;;1.83;;
1220;SDS011;600;48.044;7.878;2022-11-02T03:07:53;5.30;;;1.70;;
1220;SDS011;600;48.044;7.878;2022-11-02T03:10:24;8.37;;;2.10;;
1220;SDS011;600;48.044;7.878;2022-11-02T03:12:59;4.93;;;1.60;;
1220;SDS011;600;48.044;7.878;2022-11-02T03:15:45;2.03;;;1.63;;
1220;SDS011;600;48.044;7.878;2022-11-02T03:18:16;3.40;;;1.63;;
1220;SDS011;600;48.044;7.878;2022-11-02T03:20:52;4.27;;;2.43;;
1220;SDS011;600;48.044;7.878;2022-11-02T03:23:25;4.40;;;1.70;;
1220;SDS011;600;48.044;7.878;2022-11-02T03:25:59;5.50;;;1.97;;
1220;SDS011;600;48.044;7.878;2022-11-02T03:28:36;5.17;;;2.30;;
1220;SDS011;600;48.044;7.878;2022-11-02T03:31:12;3.83;;;1.83;;
1220;SDS011;600;48.044;7.878;2022-11-02T03:33:44;5.73;;;1.77;;
1220;SDS011;600;48.044;7.878;2022-11-02T03:36:15;3.80;;;2.00;;
1220;SDS011;600;48.044;7.878;2022-11-02T03:38:46;3.07;;;1.80;;
1220;SDS011;600;48.044;7.878;2022-11-02T03:41:16;3.27;;;1.60;;
1220;SDS011;600;48.044;7.878;2022-11-02T03:43:45;4.63;;;2.33;;
1220;SDS011;600;48.044;7.878;2022-11-02T03:46:17;3.90;;;1.57;;
1220;SDS011;600;48.044;7.878;2022-11-02T03:48:46;4.17;;;1.50;;
1220;SDS011;600;48.044;7.878;2022-11-02T03:51:17;3.70;;;1.50;;
1220;SDS011;600;48.044;7.878;2022-11-02T03:53:46;7.27;;;2.10;;
1220;SDS011;600;48.044;7.878;2022-11-02T03:56:18;7.47;;;2.63;;
1220;SDS011;600;48.044;7.878;2022-11-02T03:58:48;2.77;;;1.50;;
1220;SDS011;600;48.044;7.878;2022-11-02T04:01:16;9.43;;;1.60;;
1220;SDS011;600;48.044;7.878;2022-11-02T04:03:46;4.23;;;1.60;;
1220;SDS011;600;48.044;7.878;2022-11-02T04:06:13;4.27;;;1.50;;
1220;SDS011;600;48.044;7.878;2022-11-02T04:08:41;4.53;;;2.23;;
1220;SDS011;600;48.044;7.878;2022-11-02T04:11:09;3.20;;;1.97;;
1220;SDS011;600;48.044;7.878;2022-11-02T04:13:54;4.23;;;1.97;;
1220;SDS011;600;48.044;7.878;2022-11-02T04:16:40;5.40;;;2.00;;
1220;SDS011;600;48.044;7.878;2022-11-02T04:19:07;4.80;;;2.40;;
1220;SDS011;600;48.044;7.878;2022-11-02T04:21:52;9.20;;;2.20;;
1220;SDS011;600;48.044;7.878;2022-11-02T04:24:36;3.13;;;2.00;;
1220;SDS011;600;48.044;7.878;2022-11-02T04:27:21;3.23;;;1.90;;
1220;SDS011;600;48.044;7.878;2022-11-02T04:29:48;5.20;;;2.37;;
1220;SDS011;600;48.044;7.878;2022-11-02T04:32:16;3.77;;;1.97;;
1220;SDS011;600;48.044;7.878;2022-11-02T04:35:04;3.80;;;1.73;;
1220;SDS011;600;48.044;7.878;2022-11-02T04:37:36;6.10;;;2.50;;
1220;SDS011;600;48.044;7.878;2022-11-02T04:40:20;4.80;;;2.13;;
1220;SDS011;600;48.044;7.878;2022-11-02T04:42:47;5.50;;;1.90;;
1220;SDS011;600;48.044;7.878;2022-11-02T04:45:13;5.23;;;2.00;;
1220;SDS011;600;48.044;7.878;2022-11-02T04:47:41;4.43;;;1.80;;
1220;SDS011;600;48.044;7.878;2022-11-02T04:50:08;2.70;;;1.73;;
1220;SDS011;600;48.044;7.878;2022-11-02T04:52:35;7.90;;;2.37;;
1220;SDS011;600;48.044;7.878;2022-11-02T04:55:02;6.50;;;2.20;;
1220;SDS011;600;48.044;7.878;2022-11-02T04:57:29;5.80;;;1.83;;
1220;SDS011;600;48.044;7.878;2022-11-02T04:59:56;6.43;;;1.90;;
1220;SDS011;600;48.044;7.878;2022-11-02T05:02:23;4.10;;;1.80;;
1220;SDS011;600;48.044;7.878;2022-11-02T05:04:51;4.97;;;1.90;;
1220;SDS011;600;48.044;7.878;2022-11-02T05:07:17;3.33;;;1.70;;
1220;SDS011;600;48.044;7.878;2022-11-02T05:09:44;3.27;;;2.20;;
1220;SDS011;600;48.044;7.878;2022-11-02T05:12:11;5.27;;;2.00;;
1220;SDS011;600;48.044;7.878;2022-11-02T05:14:38;3.77;;;2.00;;
1220;SDS011;600;48.044;7.878;2022-11-02T05:17:05;4.17;;;2.07;;
1220;SDS011;600;48.044;7.878;2022-11-02T05:19:32;3.63;;;1.50;;
1220;SDS011;600;48.044;7.878;2022-11-02T05:22:00;5.60;;;2.13;;
1220;SDS011;600;48.044;7.878;2022-11-02T05:24:27;4.83;;;2.20;;
1220;SDS011;600;48.044;7.878;2022-11-02T05:26:53;8.57;;;2.40;;
1220;SDS011;600;48.044;7.878;2022-11-02T05:29:20;5.90;;;1.73;;
1220;SDS011;600;48.044;7.878;2022-11-02T05:31:47;4.90;;;1.90;;
1220;SDS011;600;48.044;7.878;2022-11-02T05:34:13;6.37;;;2.17;;
1220;SDS011;600;48.044;7.878;2022-11-02T05:36:40;3.53;;;1.73;;
1220;SDS011;600;48.044;7.878;2022-11-02T05:39:08;4.27;;;1.43;;
1220;SDS011;600;48.044;7.878;2022-11-02T05:41:35;3.87;;;2.00;;
1220;SDS011;600;48.044;7.878;2022-11-02T05:44:02;6.30;;;2.80;;
1220;SDS011;600;48.044;7.878;2022-11-02T05:46:28;5.17;;;2.30;;
1220;SDS011;600;48.044;7.878;2022-11-02T05:48:55;5.93;;;2.30;;
1220;SDS011;600;48.044;7.878;2022-11-02T05:51:22;5.60;;;2.30;;
1220;SDS011;600;48.044;7.878;2022-11-02T05:53:49;6.40;;;2.30;;
1220;SDS011;600;48.044;7.878;2022-11-02T05:56:17;5.13;;;2.33;;
1220;SDS011;600;48.044;7.878;2022-11-02T05:58:44;4.43;;;2.03;;
1220;SDS011;600;48.044;7.878;2022-11-02T06:01:10;4.90;;;2.47;;
1220;SDS011;600;48.044;7.878;2022-11-02T06:03:37;6.40;;;2.60;;
1220;SDS011;600;48.044;7.878;2022-11-02T06:06:05;4.10;;;2.00;;
1220;SDS011;600;48.044;7.878;2022-11-02T06:08:33;8.87;;;2.97;;
1220;SDS011;600;48.044;7.878;2022-11-02T06:11:02;4.77;;;2.03;;
1220;SDS011;600;48.044;7.878;2022-11-02T06:13:31;6.63;;;1.93;;
1220;SDS011;600;48.044;7.878;2022-11-02T06:15:58;6.73;;;1.80;;
1220;SDS011;600;48.044;7.878;2022-11-02T06:18:24;5.87;;;2.80;;
1220;SDS011;600;48.044;7.878;2022-11-02T06:20:51;2.20;;;2.00;;
1220;SDS011;600;48.044;7.878;2022-11-02T06:23:18;11.83;;;3.40;;
1220;SDS011;600;48.044;7.878;2022-11-02T06:25:49;6.03;;;3.30;;
1220;SDS011;600;48.044;7.878;2022-11-02T06:28:16;5.90;;;3.00;;
1220;SDS011;600;48.044;7.878;2022-11-02T06:30:44;5.67;;;2.40;;
1220;SDS011;600;48.044;7.878;2022-11-02T06:33:11;6.87;;;2.43;;
1220;SDS011;600;48.044;7.878;2022-11-02T06:35:38;6.63;;;2.40;;
1220;SDS011;600;48.044;7.878;2022-11-02T06:38:05;7.13;;;2.10;;
1220;SDS011;600;48.044;7.878;2022-11-02T06:40:32;5.27;;;1.93;;
1220;SDS011;600;48.044;7.878;2022-11-02T06:42:58;3.63;;;2.20;;
1220;SDS011;600;48.044;7.878;2022-11-02T06:45:25;4.27;;;2.10;;
1220;SDS011;600;48.044;7.878;2022-11-02T06:47:53;3.37;;;1.70;;
1220;SDS011;600;48.044;7.878;2022-11-02T06:50:20;4.43;;;2.57;;
1220;SDS011;600;48.044;7.878;2022-11-02T06:52:49;4.67;;;2.10;;
1220;SDS011;600;48.044;7.878;2022-11-02T06:55:16;6.73;;;2.33;;
1220;SDS011;600;48.044;7.878;2022-11-02T06:57:44;4.00;;;1.97;;
1220;SDS011;600;48.044;7.878;2022-11-02T07:00:12;3.37;;;1.70;;
1220;SDS011;600;48.044;7.878;2022-11-02T07:02:41;3.50;;;1.93;;
1220;SDS011;600;48.044;7.878;2022-11-02T07:05:09;6.23;;;1.90;;
1220;SDS011;600;48.044;7.878;2022-11-02T07:07:36;6.97;;;2.30;;
1220;SDS011;600;48.044;7.878;2022-11-02T07:10:03;4.80;;;2.00;;
1220;SDS011;600;48.044;7.878;2022-11-02T07:12:33;5.13;;;1.93;;
1220;SDS011;600;48.044;7.878;2022-11-02T07:14:59;7.30;;;2.10;;
1220;SDS011;600;48.044;7.878;2022-11-02T07:17:26;8.40;;;2.17;;
1220;SDS011;600;48.044;7.878;2022-11-02T07:19:53;8.33;;;1.70;;
1220;SDS011;600;48.044;7.878;2022-11-02T07:22:21;6.37;;;2.30;;
1220;SDS011;600;48.044;7.878;2022-11-02T07:24:48;11.90;;;2.83;;
1220;SDS011;600;48.044;7.878;2022-11-02T07:27:15;6.20;;;2.73;;
1220;SDS011;600;48.044;7.878;2022-11-02T07:29:41;3.60;;;2.33;;
1220;SDS011;600;48.044;7.878;2022-11-02T07:32:08;4.07;;;1.90;;
1220;SDS011;600;48.044;7.878;2022-11-02T07:34:35;7.80;;;2.30;;
1220;SDS011;600;48.044;7.878;2022-11-02T07:37:01;7.50;;;2.20;;
1220;SDS011;600;48.044;7.878;2022-11-02T07:39:30;8.60;;;2.57;;
1220;SDS011;600;48.044;7.878;2022-11-02T07:41:56;3.90;;;1.70;;
1220;SDS011;600;48.044;7.878;2022-11-02T07:44:23;4.83;;;2.27;;
1220;SDS011;600;48.044;7.878;2022-11-02T07:46:50;7.70;;;2.30;;
1220;SDS011;600;48.044;7.878;2022-11-02T07:49:16;6.60;;;2.30;;
1220;SDS011;600;48.044;7.878;2022-11-02T07:51:43;3.00;;;2.10;;
1220;SDS011;600;48.044;7.878;2022-11-02T07:54:10;6.20;;;2.40;;
1220;SDS011;600;48.044;7.878;2022-11-02T07:56:38;7.47;;;2.30;;
1220;SDS011;600;48.044;7.878;2022-11-02T07:59:05;11.37;;;2.50;;
1220;SDS011;600;48.044;7.878;2022-11-02T08:01:31;7.90;;;2.00;;
1220;SDS011;600;48.044;7.878;2022-11-02T08:03:58;4.80;;;2.03;;
1220;SDS011;600;48.044;7.878;2022-11-02T08:06:25;3.80;;;2.10;;
1220;SDS011;600;48.044;7.878;2022-11-02T08:08:52;7.10;;;2.03;;
1220;SDS011;600;48.044;7.878;2022-11-02T08:11:19;7.73;;;2.10;;
1220;SDS011;600;48.044;7.878;2022-11-02T08:13:47;4.47;;;2.03;;
1220;SDS011;600;48.044;7.878;2022-11-02T08:16:13;8.40;;;1.90;;
1220;SDS011;600;48.044;7.878;2022-11-02T08:18:40;9.17;;;2.63;;
1220;SDS011;600;48.044;7.878;2022-11-02T08:21:07;8.03;;;3.17;;
1220;SDS011;600;48.044;7.878;2022-11-02T08:23:34;5.50;;;1.90;;
1220;SDS011;600;48.044;7.878;2022-11-02T08:26:01;4.33;;;2.20;;
1220;SDS011;600;48.044;7.878;2022-11-02T08:28:28;4.53;;;2.57;;
1220;SDS011;600;48.044;7.878;2022-11-02T08:31:00;8.87;;;2.70;;
1220;SDS011;600;48.044;7.878;2022-11-02T08:33:27;4.13;;;2.77;;
1220;SDS011;600;48.044;7.878;2022-11-02T08:35:59;7.57;;;3.90;;
1220;SDS011;600;48.044;7.878;2022-11-02T08:38:27;7.40;;;2.90;;
1220;SDS011;600;48.044;7.878;2022-11-02T08:40:54;2.40;;;1.97;;
1220;SDS011;600;48.044;7.878;2022-11-02T08:43:21;4.30;;;2.10;;
1220;SDS011;600;48.044;7.878;2022-11-02T08:45:47;4.50;;;2.47;;
1220;SDS011;600;48.044;7.878;2022-11-02T08:48:16;7.00;;;2.70;;
1220;SDS011;600;48.044;7.878;2022-11-02T08:50:42;5.60;;;2.07;;
1220;SDS011;600;48.044;7.878;2022-11-02T08:53:09;5.60;;;2.60;;
1220;SDS011;600;48.044;7.878;2022-11-02T08:55:36;7.10;;;2.53;;
1220;SDS011;600;48.044;7.878;2022-11-02T08:58:03;4.03;;;1.70;;
1220;SDS011;600;48.044;7.878;2022-11-02T09:00:30;4.93;;;2.63;;
1220;SDS011;600;48.044;7.878;2022-11-02T09:02:59;6.07;;;2.33;;
1220;SDS011;600;48.044;7.878;2022-11-02T09:05:29;5.83;;;1.97;;
1220;SDS011;600;48.044;7.878;2022-11-02T09:07:57;4.60;;;2.00;;
1220;SDS011;600;48.044;7.878;2022-11-02T09:10:26;4.73;;;2.20;;
1220;SDS011;600;48.044;7.878;2022-11-02T09:12:53;6.33;;;2.30;;
1220;SDS011;600;48.044;7.878;2022-11-02T09:15:21;5.90;;;1.97;;
1220;SDS011;600;48.044;7.878;2022-11-02T09:17:48;3.83;;;1.70;;
1220;SDS011;600;48.044;7.878;2022-11-02T09:20:16;4.87;;;1.73;;
1220;SDS011;600;48.044;7.878;2022-11-02T09:22:45;4.90;;;2.40;;
1220;SDS011;600;48.044;7.878;2022-11-02T09:25:12;9.83;;;2.47;;
1220;SDS011;600;48.044;7.878;2022-11-02T09:27:40;4.13;;;2.10;;
1220;SDS011;600;48.044;7.878;2022-11-02T09:30:07;7.37;;;2.10;;
1220;SDS011;600;48.044;7.878;2022-11-02T09:32:35;5.53;;;1.70;;
1220;SDS011;600;48.044;7.878;2022-11-02T09:35:04;7.87;;;2.40;;
1220;SDS011;600;48.044;7.878;2022-11-02T09:37:32;6.17;;;2.00;;
1220;SDS011;600;48.044;7.878;2022-11-02T09:40:01;6.57;;;2.13;;
1220;SDS011;600;48.044;7.878;2022-11-02T09:42:29;8.23;;;1.87;;
1220;SDS011;600;48.044;7.878;2022-11-02T09:45:04;5.57;;;2.33;;
1220;SDS011;600;48.044;7.878;2022-11-02T09:47:34;4.37;;;1.90;;
1220;SDS011;600;48.044;7.878;2022-11-02T09:50:08;5.57;;;2.00;;
1220;SDS011;600;48.044;7.878;2022-11-02T09:52:42;6.67;;;1.60;;
1220;SDS011;600;48.044;7.878;2022-11-02T09:55:14;3.13;;;1.77;;
1220;SDS011;600;48.044;7.878;2022-11-02T10:01:18;3.90;;;1.67;;
1220;SDS011;600;48.044;7.878;2022-11-02T10:04:11;4.80;;;1.73;;
1220;SDS011;600;48.044;7.878;2022-11-02T10:06:53;3.43;;;1.87;;
1220;SDS011;600;48.044;7.878;2022-11-02T10:09:27;4.93;;;1.90;;
1220;SDS011;600;48.044;7.878;2022-11-02T10:12:04;4.57;;;2.00;;
1220;SDS011;600;48.044;7.878;2022-11-02T10:17:59;4.27;;;1.70;;
1220;SDS011;600;48.044;7.878;2022-11-02T10:20:28;3.20;;;1.90;;
1220;SDS011;600;48.044;7.878;2022-11-02T10:23:02;5.10;;;2.27;;
1220;SDS011;600;48.044;7.878;2022-11-02T10:32:17;5.40;;;2.10;;
1220;SDS011;600;48.044;7.878;2022-11-02T10:34:44;6.20;;;2.57;;
1220;SDS011;600;48.044;7.878;2022-11-02T10:37:18;8.80;;;3.17;;
1220;SDS011;600;48.044;7.878;2022-11-02T10:40:02;6.70;;;2.40;;
1220;SDS011;600;48.044;7.878;2022-11-02T10:42:49;3.30;;;2.10;;
1220;SDS011;600;48.044;7.878;2022-11-02T10:45:32;5.40;;;2.10;;
1220;SDS011;600;48.044;7.878;2022-11-02T10:48:12;4.70;;;2.30;;
1220;SDS011;600;48.044;7.878;2022-11-02T10:50:50;6.00;;;2.13;;
1220;SDS011;600;48.044;7.878;2022-11-02T10:53:22;4.83;;;2.40;;
1220;SDS011;600;48.044;7.878;2022-11-02T10:55:50;6.23;;;2.00;;
1220;SDS011;600;48.044;7.878;2022-11-02T10:58:22;3.67;;;1.93;;
1220;SDS011;600;48.044;7.878;2022-11-02T11:01:02;9.13;;;3.33;;
1220;SDS011;600;48.044;7.878;2022-11-02T11:03:31;5.00;;;2.43;;
1220;SDS011;600;48.044;7.878;2022-11-02T11:05:59;6.13;;;2.70;;
1220;SDS011;600;48.044;7.878;2022-11-02T11:08:29;6.10;;;2.60;;
1220;SDS011;600;48.044;7.878;2022-11-02T11:11:10;4.80;;;2.27;;
1220;SDS011;600;48.044;7.878;2022-11-02T11:13:40;4.23;;;2.20;;
1220;SDS011;600;48.044;7.878;2022-11-02T11:16:08;9.90;;;2.90;;
1220;SDS011;600;48.044;7.878;2022-11-02T11:18:37;3.10;;;1.80;;
1220;SDS011;600;48.044;7.878;2022-11-02T11:21:04;3.97;;;2.10;;
1220;SDS011;600;48.044;7.878;2022-11-02T11:23:32;5.97;;;2.23;;
1220;SDS011;600;48.044;7.878;2022-11-02T11:25:59;6.10;;;2.70;;
1220;SDS011;600;48.044;7.878;2022-11-02T11:28:28;5.10;;;2.30;;
1220;SDS011;600;48.044;7.878;2022-11-02T11:31:09;4.23;;;1.80;;
1220;SDS011;600;48.044;7.878;2022-11-02T11:33:42;5.40;;;2.20;;
1220;SDS011;600;48.044;7.878;2022-11-02T11:36:18;3.90;;;2.03;;
1220;SDS011;600;48.044;7.878;2022-11-02T11:38:47;5.73;;;2.07;;
1220;SDS011;600;48.044;7.878;2022-11-02T11:41:15;6.40;;;2.23;;
1220;SDS011;600;48.044;7.878;2022-11-02T11:43:43;3.23;;;1.87;;
1220;SDS011;600;48.044;7.878;2022-11-02T11:46:12;6.37;;;2.00;;
1220;SDS011;600;48.044;7.878;2022-11-02T11:48:43;5.60;;;2.07;;
1220;SDS011;600;48.044;7.878;2022-11-02T11:51:23;6.83;;;1.90;;
1220;SDS011;600;48.044;7.878;2022-11-02T11:54:03;6.77;;;2.33;;
1220;SDS011;600;48.044;7.878;2022-11-02T11:56:32;4.03;;;2.03;;
1220;SDS011;600;48.044;7.878;2022-11-02T11:58:59;4.70;;;2.00;;
1220;SDS011;600;48.044;7.878;2022-11-02T12:01:25;5.03;;;1.73;;
1220;SDS011;600;48.044;7.878;2022-11-02T12:04:04;8.47;;;2.53;;
1220;SDS011;600;48.044;7.878;2022-11-02T12:06:32;6.43;;;2.00;;
1220;SDS011;600;48.044;7.878;2022-11-02T12:09:09;2.90;;;2.37;;
1220;SDS011;600;48.044;7.878;2022-11-02T12:11:45;7.40;;;2.10;;
1220;SDS011;600;48.044;7.878;2022-11-02T12:14:23;6.10;;;2.17;;
1220;SDS011;600;48.044;7.878;2022-11-02T12:17:03;4.83;;;2.40;;
1220;SDS011;600;48.044;7.878;2022-11-02T12:19:50;7.20;;;2.20;;
1220;SDS011;600;48.044;7.878;2022-11-02T12:22:28;6.20;;;2.53;;
1220;SDS011;600;48.044;7.878;2022-11-02T12:25:05;4.90;;;2.07;;
1220;SDS011;600;48.044;7.878;2022-11-02T12:27:43;8.37;;;2.27;;
1220;SDS011;600;48.044;7.878;2022-11-02T12:30:16;6.97;;;2.87;;
1220;SDS011;600;48.044;7.878;2022-11-02T12:32:57;3.83;;;2.00;;
1220;SDS011;600;48.044;7.878;2022-11-02T12:38:54;9.73;;;3.10;;
1220;SDS011;600;48.044;7.878;2022-11-02T12:44:23;5.47;;;1.80;;
1220;SDS011;600;48.044;7.878;2022-11-02T12:47:05;4.87;;;2.00;;
1220;SDS011;600;48.044;7.878;2022-11-02T12:49:43;4.10;;;1.87;;
1220;SDS011;600;48.044;7.878;2022-11-02T12:52:28;5.77;;;2.80;;
1220;SDS011;600;48.044;7.878;2022-11-02T12:55:04;4.33;;;1.43;;
1220;SDS011;600;48.044;7.878;2022-11-02T12:57:39;4.47;;;1.83;;
1220;SDS011;600;48.044;7.878;2022-11-02T13:00:10;4.23;;;2.30;;
1220;SDS011;600;48.044;7.878;2022-11-02T13:02:44;5.43;;;3.60;;
1220;SDS011;600;48.044;7.878;2022-11-02T13:05:19;8.77;;;5.10;;
1220;SDS011;600;48.044;7.878;2022-11-02T13:07:51;7.63;;;4.43;;
1220;SDS011;600;48.044;7.878;2022-11-02T13:10:27;4.37;;;2.40;;
1220;SDS011;600;48.044;7.878;2022-11-02T13:12:58;3.73;;;2.30;;
1220;SDS011;600;48.044;7.878;2022-11-02T13:15:30;6.50;;;2.67;;
1220;SDS011;600;48.044;7.878;2022-11-02T13:18:01;6.83;;;2.13;;
1220;SDS011;600;48.044;7.878;2022-11-02T13:20:32;5.20;;;2.20;;
1220;SDS011;600;48.044;7.878;2022-11-02T13:23:06;7.53;;;2.53;;
1220;SDS011;600;48.044;7.878;2022-11-02T13:25:46;5.43;;;2.30;;
1220;SDS011;600;48.044;7.878;2022-11-02T13:28:17;4.70;;;2.33;;
1220;SDS011;600;48.044;7.878;2022-11-02T13:30:49;5.93;;;2.10;;
1220;SDS011;600;48.044;7.878;2022-11-02T13:33:17;5.10;;;2.50;;
1220;SDS011;600;48.044;7.878;2022-11-02T13:35:50;2.67;;;1.83;;
1220;SDS011;600;48.044;7.878;2022-11-02T13:38:21;5.80;;;2.27;;
1220;SDS011;600;48.044;7.878;2022-11-02T13:40:58;4.90;;;1.87;;
1220;SDS011;600;48.044;7.878;2022-11-02T13:43:59;7.60;;;2.40;;
1220;SDS011;600;48.044;7.878;2022-11-02T13:46:55;4.80;;;2.27;;
1220;SDS011;600;48.044;7.878;2022-11-02T13:56:19;6.73;;;1.90;;
1220;SDS011;600;48.044;7.878;2022-11-02T14:02:10;4.83;;;1.90;;
1220;SDS011;600;48.044;7.878;2022-11-02T14:04:41;6.10;;;2.33;;
1220;SDS011;600;48.044;7.878;2022-11-02T14:07:16;7.90;;;2.13;;
1220;SDS011;600;48.044;7.878;2022-11-02T14:09:47;3.63;;;2.13;;
1220;SDS011;600;48.044;7.878;2022-11-02T14:12:28;5.23;;;2.30;;
1220;SDS011;600;48.044;7.878;2022-11-02T14:18:46;5.20;;;2.50;;
1220;SDS011;600;48.044;7.878;2022-11-02T14:24:53;3.00;;;1.80;;
1220;SDS011;600;48.044;7.878;2022-11-02T14:27:31;5.13;;;2.30;;
1220;SDS011;600;48.044;7.878;2022-11-02T14:29:58;4.53;;;2.20;;
1220;SDS011;600;48.044;7.878;2022-11-02T14:35:28;6.77;;;3.23;;
1220;SDS011;600;48.044;7.878;2022-11-02T14:38:16;5.30;;;3.17;;
1220;SDS011;600;48.044;7.878;2022-11-02T14:41:13;4.50;;;2.73;;
1220;SDS011;600;48.044;7.878;2022-11-02T14:43:55;6.07;;;3.10;;
1220;SDS011;600;48.044;7.878;2022-11-02T14:46:32;6.80;;;2.67;;
1220;SDS011;600;48.044;7.878;2022-11-02T14:49:14;4.23;;;2.13;;
1220;SDS011;600;48.044;7.878;2022-11-02T14:51:45;6.37;;;2.60;;
1220;SDS011;600;48.044;7.878;2022-11-02T14:54:22;4.90;;;1.87;;
1220;SDS011;600;48.044;7.878;2022-11-02T14:56:50;4.83;;;2.67;;
1220;SDS011;600;48.044;7.878;2022-11-02T14:59:20;10.37;;;5.90;;
1220;SDS011;600;48.044;7.878;2022-11-02T15:01:53;15.40;;;8.50;;
1220;SDS011;600;48.044;7.878;2022-11-02T15:04:22;28.20;;;16.60;;
1220;SDS011;600;48.044;7.878;2022-11-02T15:06:52;24.20;;;14.50;;
1220;SDS011;600;48.044;7.878;2022-11-02T15:12:28;10.07;;;5.93;;
1220;SDS011;600;48.044;7.878;2022-11-02T15:23:59;9.03;;;5.90;;
1220;SDS011;600;48.044;7.878;2022-11-02T15:26:49;8.80;;;4.47;;
1220;SDS011;600;48.044;7.878;2022-11-02T15:29:31;10.57;;;5.60;;
1220;SDS011;600;48.044;7.878;2022-11-02T15:38:40;6.17;;;2.80;;
1220;SDS011;600;48.044;7.878;2022-11-02T15:41:15;6.73;;;2.83;;
1220;SDS011;600;48.044;7.878;2022-11-02T15:43:51;4.47;;;2.50;;
1220;SDS011;600;48.044;7.878;2022-11-02T15:46:30;7.30;;;2.83;;
1220;SDS011;600;48.044;7.878;2022-11-02T15:49:10;8.20;;;2.33;;
1220;SDS011;600;48.044;7.878;2022-11-02T15:51:49;5.90;;;2.27;;
1220;SDS011;600;48.044;7.878;2022-11-02T15:54:22;4.90;;;2.00;;
1220;SDS011;600;48.044;7.878;2022-11-02T15:57:08;5.47;;;2.67;;
1220;SDS011;600;48.044;7.878;2022-11-02T15:59:47;5.83;;;2.47;;
1220;SDS011;600;48.044;7.878;2022-11-02T16:02:35;8.03;;;3.80;;
1220;SDS011;600;48.044;7.878;2022-11-02T16:05:05;7.60;;;3.80;;
1220;SDS011;600;48.044;7.878;2022-11-02T16:07:32;7.97;;;2.77;;
1220;SDS011;600;48.044;7.878;2022-11-02T16:10:11;5.50;;;3.00;;
1220;SDS011;600;48.044;7.878;2022-11-02T16:12:47;6.03;;;2.33;;
1220;SDS011;600;48.044;7.878;2022-11-02T16:15:21;3.90;;;2.40;;
1220;SDS011;600;48.044;7.878;2022-11-02T16:17:48;6.97;;;2.77;;
1220;SDS011;600;48.044;7.878;2022-11-02T16:20:18;4.97;;;2.80;;
1220;SDS011;600;48.044;7.878;2022-11-02T16:22:47;4.63;;;2.57;;
1220;SDS011;600;48.044;7.878;2022-11-02T16:25:16;7.53;;;2.53;;
1220;SDS011;600;48.044;7.878;2022-11-02T16:27:47;4.83;;;2.90;;
1220;SDS011;600;48.044;7.878;2022-11-02T16:30:17;5.17;;;3.40;;
1220;SDS011;600;48.044;7.878;2022-11-02T16:32:46;4.30;;;3.13;;
1220;SDS011;600;48.044;7.878;2022-11-02T16:35:16;6.90;;;3.70;;
1220;SDS011;600;48.044;7.878;2022-11-02T16:37:45;6.50;;;3.73;;
1220;SDS011;600;48.044;7.878;2022-11-02T16:40:14;4.97;;;3.23;;
1220;SDS011;600;48.044;7.878;2022-11-02T16:42:44;4.20;;;2.80;;
1220;SDS011;600;48.044;7.878;2022-11-02T16:45:28;6.90;;;2.83;;
1220;SDS011;600;48.044;7.878;2022-11-02T16:47:59;4.50;;;3.00;;
1220;SDS011;600;48.044;7.878;2022-11-02T16:50:27;4.60;;;3.47;;
1220;SDS011;600;48.044;7.878;2022-11-02T16:52:56;7.10;;;4.00;;
1220;SDS011;600;48.044;7.878;2022-11-02T16:55:32;10.50;;;6.47;;